Time;durP1;ratioP1;P1;durP2;ratioP2;P2;SDS_P1;SDS_P2;PMS_P1;PMS_P2;Temp;Humidity;BMP_temperature;BMP_pressure;BME280_temperature;BME280_humidity;BME280_pressure;Samples;Min_cycle;Max_cycle;Signal;HPM_P1;HPM_P2
2023/03/25 00:00:48;;;;;;;6.90;1.83;;;;;;;8.33;92.07;100129.47;5011531;28;20053;-71
2023/03/25 00:03:13;;;;;;;11.07;1.60;;;;;;;8.35;91.73;100119.41;5013046;28;20072;-71
2023/03/25 00:05:39;;;;;;;9.20;1.65;;;;;;;8.35;91.61;100126.66;5013079;28;20157;-71
2023/03/25 00:08:05;;;;;;;7.43;1.60;;;;;;;8.35;90.89;100129.38;5008713;28;20034;-71
2023/03/25 00:10:30;;;;;;;4.40;1.45;;;;;;;8.34;91.49;100135.75;5008961;28;20553;-72
2023/03/25 00:12:57;;;;;;;6.90;1.73;;;;;;;8.36;90.80;100132.00;5007347;28;20175;-71
2023/03/25 00:15:22;;;;;;;6.65;1.50;;;;;;;8.36;90.81;100129.28;5013357;28;20038;-71
2023/03/25 00:17:48;;;;;;;7.80;2.22;;;;;;;8.37;90.84;100127.44;5016822;28;20545;-72
2023/03/25 00:20:13;;;;;;;6.53;1.63;;;;;;;8.29;90.78;100105.44;5022885;28;20049;-72
2023/03/25 00:22:41;;;;;;;3.70;1.40;;;;;;;8.37;90.10;100139.16;5008308;28;20456;-71
2023/03/25 00:25:15;;;;;;;3.75;1.35;;;;;;;8.36;89.59;100129.28;5007201;28;20107;-70
2023/03/25 00:27:42;;;;;;;3.83;1.38;;;;;;;8.35;89.97;100121.25;5040030;28;20500;-71
2023/03/25 00:30:08;;;;;;;7.78;1.70;;;;;;;8.30;89.95;100110.75;4992539;28;20042;-72
2023/03/25 00:32:34;;;;;;;9.38;2.70;;;;;;;8.32;89.56;100111.50;5007344;28;20113;-71
2023/03/25 00:34:59;;;;;;;12.45;1.95;;;;;;;8.29;88.58;100111.72;5009482;28;20125;-71
2023/03/25 00:37:26;;;;;;;6.05;1.65;;;;;;;8.31;88.67;100117.91;5009032;28;20068;-71
2023/03/25 00:39:51;;;;;;;11.02;3.28;;;;;;;8.33;88.55;100117.78;5028084;28;20029;-71
2023/03/25 00:42:24;;;;;;;8.25;1.77;;;;;;;8.32;88.80;100107.91;5014967;28;20091;-71
2023/03/25 00:44:50;;;;;;;7.82;1.63;;;;;;;8.32;88.30;100124.19;5006853;28;20037;-71
2023/03/25 00:47:17;;;;;;;9.55;1.55;;;;;;;8.32;89.05;100113.34;5008425;28;20377;-71
2023/03/25 00:49:43;;;;;;;4.78;1.58;;;;;;;8.31;88.74;100122.47;5008455;28;20109;-71
2023/03/25 00:52:09;;;;;;;12.07;1.80;;;;;;;8.30;88.46;100118.00;5023104;28;20152;-71
2023/03/25 00:54:35;;;;;;;11.50;2.15;;;;;;;8.30;88.96;100110.75;5007166;28;20042;-72
2023/03/25 00:57:00;;;;;;;5.30;1.60;;;;;;;8.27;88.78;100129.94;5006177;28;20104;-72
2023/03/25 00:59:25;;;;;;;6.75;2.15;;;;;;;8.27;88.73;100115.53;4992904;28;20026;-72
2023/03/25 01:01:52;;;;;;;6.13;1.95;;;;;;;8.25;89.05;100118.34;5015075;28;20497;-72
2023/03/25 01:04:18;;;;;;;6.53;1.63;;;;;;;8.24;89.35;100119.31;5008049;28;20033;-72
2023/03/25 01:06:44;;;;;;;7.32;1.63;;;;;;;8.24;89.07;100124.75;5005879;28;20068;-72
2023/03/25 01:09:15;;;;;;;5.68;1.50;;;;;;;8.22;89.51;100115.00;5008047;28;20581;-71
2023/03/25 01:11:42;;;;;;;4.05;1.20;;;;;;;8.22;89.42;100120.44;5005497;28;20025;-72
2023/03/25 01:14:14;;;;;;;9.82;2.30;;;;;;;8.22;89.50;100115.00;5007870;28;20028;-71
2023/03/25 01:16:39;;;;;;;4.55;1.40;;;;;;;8.22;89.70;100115.88;5006143;28;20065;-72
2023/03/25 01:19:05;;;;;;;8.40;1.85;;;;;;;8.22;89.70;100117.72;5006873;28;20096;-72
2023/03/25 01:21:34;;;;;;;4.80;1.70;;;;;;;8.19;89.20;100114.25;5008093;28;20392;-72
2023/03/25 01:23:59;;;;;;;3.33;1.50;;;;;;;8.18;90.13;100117.06;5008599;28;20037;-72
2023/03/25 01:26:25;;;;;;;7.57;2.00;;;;;;;8.17;90.43;100120.78;5005428;28;20045;-72
2023/03/25 01:28:50;;;;;;;8.32;2.38;;;;;;;8.16;89.96;100122.63;5007037;28;20092;-71
2023/03/25 01:31:16;;;;;;;4.57;1.55;;;;;;;8.15;90.24;100115.44;5007172;28;20038;-71
2023/03/25 01:33:41;;;;;;;10.30;2.67;;;;;;;8.13;90.69;100114.72;5005436;28;20117;-71
2023/03/25 01:36:11;;;;;;;5.65;1.88;;;;;;;8.14;90.28;100118.28;4989232;28;20033;-72
2023/03/25 01:38:38;;;;;;;7.65;2.85;;;;;;;8.10;90.04;100109.50;5005916;28;20354;-71
2023/03/25 01:41:05;;;;;;;4.50;1.50;;;;;;;8.09;90.20;100121.31;5005824;28;20437;-71
2023/03/25 01:43:31;;;;;;;8.77;1.90;;;;;;;8.09;90.79;100120.47;5022043;28;20107;-72
2023/03/25 01:45:57;;;;;;;5.55;1.90;;;;;;;8.07;91.28;100122.44;5008037;28;20018;-72
2023/03/25 01:48:35;;;;;;;4.80;1.73;;;;;;;8.03;91.16;100115.50;5026021;28;20037;-71
2023/03/25 01:51:09;;;;;;;5.28;2.25;;;;;;;8.03;91.46;100115.50;5026983;28;20457;-72
2023/03/25 01:53:34;;;;;;;3.33;1.73;;;;;;;8.00;92.27;100118.44;5017175;28;20045;-71
2023/03/25 01:56:04;;;;;;;5.05;1.98;;;;;;;7.99;92.36;100106.75;5025173;28;20397;-72
2023/03/25 01:58:30;;;;;;;4.20;1.80;;;;;;;7.97;92.26;100115.94;5024806;28;20033;-72
2023/03/25 02:00:56;;;;;;;5.45;2.03;;;;;;;7.91;92.15;100101.00;5010986;28;20097;-72
2023/03/25 02:03:24;;;;;;;5.93;1.50;;;;;;;7.90;91.86;100105.56;5027152;28;20224;-72
2023/03/25 02:06:06;;;;;;;3.22;1.70;;;;;;;7.86;91.06;100095.94;5023345;28;20037;-72
2023/03/25 02:08:38;;;;;;;4.43;1.60;;;;;;;7.87;91.41;100097.66;5021517;28;20037;-71
2023/03/25 02:11:10;;;;;;;10.65;1.65;;;;;;;7.93;91.21;100107.19;5040596;28;20509;-70
2023/03/25 02:13:38;;;;;;;2.97;1.75;;;;;;;7.94;91.95;100095.38;5026140;28;20057;-71
2023/03/25 02:16:20;;;;;;;8.38;2.15;;;;;;;7.92;91.62;100105.44;5012111;28;20104;-71
2023/03/25 02:19:17;;;;;;;5.93;1.52;;;;;;;7.89;92.61;100113.81;5025654;28;20040;-72
2023/03/25 02:22:04;;;;;;;6.53;2.05;;;;;;;7.85;93.72;100110.47;5024641;28;20456;-72
2023/03/25 02:25:00;;;;;;;8.75;2.30;;;;;;;7.83;93.99;100103.41;5007731;28;20045;-72
2023/03/25 02:27:45;;;;;;;6.18;1.40;;;;;;;7.78;94.52;100098.31;5004657;28;20124;-72
2023/03/25 02:30:38;;;;;;;6.35;1.90;;;;;;;7.75;95.58;100095.88;4997801;28;20029;-71
2023/03/25 02:33:42;;;;;;;4.82;1.65;;;;;;;7.73;95.18;100105.91;5038457;28;20060;-72
2023/03/25 02:36:19;;;;;;;9.13;2.22;;;;;;;7.73;94.49;100102.34;5054225;28;20048;-71
2023/03/25 02:38:52;;;;;;;11.73;2.45;;;;;;;7.74;94.50;100104.97;5006721;28;20087;-72
2023/03/25 02:41:28;;;;;;;10.25;2.33;;;;;;;7.72;94.11;100098.78;5004036;28;20481;-71
2023/03/25 02:44:04;;;;;;;4.07;1.88;;;;;;;7.71;94.01;100094.34;5045363;28;20550;-72
2023/03/25 02:46:31;;;;;;;3.13;1.77;;;;;;;7.66;94.18;100093.81;5050788;28;20465;-72
2023/03/25 02:49:05;;;;;;;7.38;2.53;;;;;;;7.68;93.79;100098.13;5006623;28;20338;-72
2023/03/25 02:51:36;;;;;;;7.30;1.83;;;;;;;7.67;93.75;100082.88;5004785;28;20072;-72
2023/03/25 02:54:11;;;;;;;4.97;1.63;;;;;;;7.70;94.24;100092.63;5006036;28;20112;-72
2023/03/25 02:56:40;;;;;;;8.63;2.20;;;;;;;7.70;94.46;100076.38;5003746;28;20137;-71
2023/03/25 02:59:08;;;;;;;3.03;1.70;;;;;;;7.69;94.40;100085.47;5004767;28;20088;-71
2023/03/25 03:01:35;;;;;;;5.80;1.88;;;;;;;7.69;93.91;100082.75;5006080;28;20037;-71
2023/03/25 03:04:01;;;;;;;2.40;1.35;;;;;;;7.68;94.26;100097.28;5041781;28;20026;-72
2023/03/25 03:06:27;;;;;;;6.82;1.50;;;;;;;7.67;94.70;100084.72;5023781;28;20404;-71
2023/03/25 03:09:02;;;;;;;7.38;1.95;;;;;;;7.66;95.47;100086.56;5011447;28;20539;-71
2023/03/25 03:11:32;;;;;;;6.65;1.70;;;;;;;7.62;95.51;100079.63;5004048;28;20123;-71
2023/03/25 03:14:21;;;;;;;6.78;2.17;;;;;;;7.60;96.25;100086.13;5013403;28;20228;-72
2023/03/25 03:17:05;;;;;;;7.15;1.80;;;;;;;7.59;97.04;100092.53;5006252;28;20444;-72
2023/03/25 03:19:49;;;;;;;13.75;2.08;;;;;;;7.56;97.81;100087.34;5007271;28;20038;-72
2023/03/25 03:22:51;;;;;;;5.25;1.60;;;;;;;7.54;98.56;100086.56;5006900;28;20041;-73
2023/03/25 03:25:33;;;;;;;9.00;2.00;;;;;;;7.52;99.53;100083.13;5028501;28;20039;-73
2023/03/25 03:28:36;;;;;;;9.98;1.92;;;;;;;7.49;99.19;100078.78;5028394;28;20421;-72
2023/03/25 03:31:19;;;;;;;5.90;1.88;;;;;;;7.47;99.79;100088.00;5015617;28;20184;-73
2023/03/25 03:34:01;;;;;;;9.30;2.20;;;;;;;7.47;99.44;100088.00;5030208;28;20041;-72
2023/03/25 03:36:35;;;;;;;7.15;1.90;;;;;;;7.50;99.54;100093.19;4992483;28;20077;-72
2023/03/25 03:39:06;;;;;;;7.63;2.10;;;;;;;7.48;99.83;100081.63;5025324;28;20361;-72
2023/03/25 03:41:35;;;;;;;12.25;3.13;;;;;;;7.49;99.50;100072.50;5024022;28;20030;-72
2023/03/25 03:44:08;;;;;;;9.65;2.08;;;;;;;7.44;98.41;100075.56;5010683;28;20514;-72
2023/03/25 03:46:57;;;;;;;9.02;2.00;;;;;;;7.52;98.83;100088.53;5008587;28;20037;-72
2023/03/25 03:49:34;;;;;;;9.57;2.22;;;;;;;7.51;98.16;100074.16;5009178;28;20083;-72
2023/03/25 03:52:46;;;;;;;9.43;2.33;;;;;;;7.52;98.21;100077.72;5009642;28;20436;-72
2023/03/25 03:55:28;;;;;;;6.95;2.05;;;;;;;7.51;98.30;100073.28;5007264;28;20116;-71
2023/03/25 03:58:22;;;;;;;8.05;2.20;;;;;;;7.49;98.33;100076.09;5007797;28;20304;-72
2023/03/25 04:00:56;;;;;;;5.28;2.17;;;;;;;7.44;97.67;100064.72;5019009;28;20084;-72
2023/03/25 04:03:37;;;;;;;7.10;1.70;;;;;;;7.41;97.71;100075.75;5022093;28;20038;-72
2023/03/25 04:06:14;;;;;;;14.30;2.75;;;;;;;7.39;97.99;100084.00;5009485;28;20034;-72
2023/03/25 04:08:57;;;;;;;11.18;2.17;;;;;;;7.39;97.63;100078.59;5007689;28;20129;-72
2023/03/25 04:11:28;;;;;;;6.95;1.65;;;;;;;7.39;97.54;100084.00;5007819;28;20472;-72
2023/03/25 04:13:58;;;;;;;9.68;1.90;;;;;;;7.44;97.29;100080.09;5008200;28;20061;-72
2023/03/25 04:16:24;;;;;;;8.27;1.80;;;;;;;7.45;97.90;100076.41;5007574;28;20189;-71
2023/03/25 04:18:52;;;;;;;4.35;1.80;;;;;;;7.45;97.46;100074.56;5009229;28;20076;-70
2023/03/25 04:21:18;;;;;;;11.35;1.90;;;;;;;7.47;97.26;100069.06;5008858;28;20069;-72
2023/03/25 04:23:45;;;;;;;8.32;1.67;;;;;;;7.39;97.76;100062.34;5019996;28;20487;-72
2023/03/25 04:26:12;;;;;;;8.88;1.73;;;;;;;7.45;97.04;100068.28;5026252;28;20038;-72
2023/03/25 04:28:40;;;;;;;5.25;1.60;;;;;;;7.46;97.41;100079.03;5026728;28;20201;-72
2023/03/25 04:31:14;;;;;;;6.10;1.13;;;;;;;7.47;97.43;100085.31;5011255;28;20064;-72
2023/03/25 04:33:40;;;;;;;7.28;1.85;;;;;;;7.45;97.54;100079.97;5008609;28;20037;-71
2023/03/25 04:36:06;;;;;;;11.25;1.73;;;;;;;7.44;97.28;100071.97;5015693;28;20105;-71
2023/03/25 04:38:31;;;;;;;6.50;1.55;;;;;;;7.45;97.08;100079.97;5017370;28;20447;-71
2023/03/25 04:40:57;;;;;;;4.15;1.10;;;;;;;7.45;97.03;100071.00;5007611;28;20069;-71
2023/03/25 04:43:22;;;;;;;5.70;1.38;;;;;;;7.45;97.83;100085.41;5006879;28;20589;-72
2023/03/25 04:45:52;;;;;;;8.18;2.00;;;;;;;7.43;97.25;100079.25;5040015;28;20045;-71
2023/03/25 04:48:30;;;;;;;10.15;1.90;;;;;;;7.45;97.55;100084.53;5027967;28;20045;-72
2023/03/25 04:51:00;;;;;;;6.88;1.70;;;;;;;7.42;98.04;100074.81;5026493;28;20033;-72
2023/03/25 04:53:26;;;;;;;6.80;1.88;;;;;;;7.40;99.49;100080.31;5017716;28;20060;-72
2023/03/25 04:55:52;;;;;;;6.35;1.63;;;;;;;7.36;99.92;100078.78;5007873;28;20026;-72
2023/03/25 04:58:18;;;;;;;10.80;1.83;;;;;;;7.31;100.00;100072.84;5007799;28;20038;-72
2023/03/25 05:00:45;;;;;;;14.32;2.15;;;;;;;7.31;100.00;100070.16;5006386;28;20038;-72
2023/03/25 05:03:10;;;;;;;5.00;1.85;;;;;;;7.29;100.00;100080.22;5027915;28;20526;-72
2023/03/25 05:05:37;;;;;;;8.27;2.22;;;;;;;7.29;100.00;100072.09;5012046;28;20026;-72
2023/03/25 05:08:03;;;;;;;7.25;1.88;;;;;;;7.30;100.00;100086.50;5008775;28;20037;-73
2023/03/25 05:10:29;;;;;;;9.45;1.50;;;;;;;7.28;100.00;100085.75;4989560;28;20053;-73
2023/03/25 05:13:02;;;;;;;8.95;2.13;;;;;;;7.28;100.00;100088.47;5006813;28;20410;-73
2023/03/25 05:15:31;;;;;;;6.93;1.83;;;;;;;7.25;100.00;100083.25;5006773;28;20443;-73
2023/03/25 05:17:57;;;;;;;6.22;2.42;;;;;;;7.22;100.00;100089.72;5025511;28;20033;-72
2023/03/25 05:20:23;;;;;;;6.05;1.45;;;;;;;7.22;100.00;100089.72;5027781;28;20167;-73
2023/03/25 05:22:49;;;;;;;4.95;1.50;;;;;;;7.22;100.00;100084.31;5022490;28;20461;-73
2023/03/25 05:25:14;;;;;;;8.15;1.70;;;;;;;7.23;100.00;100090.59;5006909;28;20029;-72
2023/03/25 05:27:40;;;;;;;13.23;4.15;;;;;;;7.22;100.00;100097.00;5007292;28;20126;-72
2023/03/25 05:30:06;;;;;;;9.75;1.95;;;;;;;7.23;100.00;100096.91;5006273;28;20053;-72
2023/03/25 05:32:32;;;;;;;3.65;1.60;;;;;;;7.21;100.00;100101.53;5008191;28;20038;-73
2023/03/25 05:35:03;;;;;;;3.53;1.52;;;;;;;7.21;100.00;100092.56;5007752;28;20390;-73
2023/03/25 05:37:29;;;;;;;5.72;2.10;;;;;;;7.24;100.00;100098.63;5041859;28;20535;-72
2023/03/25 05:39:55;;;;;;;7.00;1.90;;;;;;;7.26;100.00;100102.06;5025631;28;20033;-73
2023/03/25 05:42:21;;;;;;;7.53;2.35;;;;;;;7.27;100.00;100092.13;5014510;28;20127;-72
2023/03/25 05:44:51;;;;;;;7.32;1.77;;;;;;;7.28;100.00;100099.28;5016607;28;20065;-72
2023/03/25 05:47:22;;;;;;;8.23;2.65;;;;;;;7.29;100.00;100106.41;5018289;28;20069;-72
2023/03/25 05:49:48;;;;;;;9.88;1.92;;;;;;;7.30;99.50;100102.72;5026060;28;20393;-72
2023/03/25 05:52:18;;;;;;;8.27;1.50;;;;;;;7.31;99.40;100109.88;5024868;28;20068;-72
2023/03/25 05:54:45;;;;;;;8.05;2.85;;;;;;;7.29;98.70;100099.16;5006917;28;20042;-71
2023/03/25 05:57:11;;;;;;;9.05;2.35;;;;;;;7.32;98.19;100095.34;5004803;28;20107;-73
2023/03/25 05:59:37;;;;;;;9.50;1.70;;;;;;;7.34;97.56;100104.25;5021535;28;20034;-72
2023/03/25 06:02:06;;;;;;;9.65;1.88;;;;;;;7.26;97.52;100109.31;5007511;28;20367;-72
2023/03/25 06:04:36;;;;;;;3.60;1.85;;;;;;;7.29;97.05;100125.34;5007629;28;20045;-72
2023/03/25 06:07:12;;;;;;;8.50;1.88;;;;;;;7.26;97.06;100125.56;5006302;28;20054;-72
2023/03/25 06:09:45;;;;;;;6.10;1.90;;;;;;;7.27;96.75;100130.00;5006742;28;20046;-72
2023/03/25 06:12:15;;;;;;;4.45;2.05;;;;;;;7.25;96.34;100138.22;5017133;28;20381;-72
2023/03/25 06:14:44;;;;;;;8.15;2.00;;;;;;;7.20;96.19;100118.75;5020229;28;20420;-72
2023/03/25 06:17:15;;;;;;;6.22;2.53;;;;;;;7.21;95.94;100130.44;5006436;28;20042;-72
2023/03/25 06:19:41;;;;;;;8.10;2.13;;;;;;;7.19;95.98;100126.97;5007030;28;20107;-72
2023/03/25 06:22:08;;;;;;;7.63;2.15;;;;;;;7.15;95.75;100115.50;5006599;28;20042;-72
2023/03/25 06:24:35;;;;;;;6.00;2.47;;;;;;;7.19;95.85;100126.97;5023810;28;20148;-72
2023/03/25 06:27:01;;;;;;;6.03;2.05;;;;;;;7.21;95.83;100131.28;5026069;28;20049;-72
2023/03/25 06:29:27;;;;;;;9.48;1.88;;;;;;;7.23;95.34;100120.34;5023106;28;20092;-71
2023/03/25 06:31:52;;;;;;;8.60;1.83;;;;;;;7.25;95.08;100119.28;5031665;28;20069;-72
2023/03/25 06:34:17;;;;;;;6.47;1.85;;;;;;;7.30;94.99;100118.97;5007161;28;20404;-72
2023/03/25 06:36:43;;;;;;;13.07;2.53;;;;;;;7.33;95.19;100118.75;5006082;28;20418;-72
2023/03/25 06:39:09;;;;;;;8.77;2.55;;;;;;;7.44;94.86;100124.25;5006233;28;20069;-72
2023/03/25 06:41:36;;;;;;;6.90;1.90;;;;;;;7.53;93.91;100130.88;5035639;28;20456;-72
2023/03/25 06:44:11;;;;;;;11.70;2.25;;;;;;;7.70;93.70;100138.66;5010049;28;20025;-72
2023/03/25 06:47:09;;;;;;;15.02;2.17;;;;;;;7.76;92.83;100138.19;5008562;28;20567;-72
2023/03/25 06:49:47;;;;;;;16.10;2.90;;;;;;;7.75;92.17;100144.59;5037233;28;20105;-72
2023/03/25 06:52:13;;;;;;;10.88;2.22;;;;;;;7.79;92.39;100139.84;5005103;28;20172;-72
2023/03/25 06:54:39;;;;;;;7.45;2.17;;;;;;;7.78;92.54;100146.19;5014270;28;20382;-72
2023/03/25 06:57:05;;;;;;;10.57;2.72;;;;;;;7.83;92.83;100155.75;5024874;28;20072;-71
2023/03/25 06:59:30;;;;;;;11.25;2.42;;;;;;;7.85;92.18;100153.78;5027327;28;20044;-72
2023/03/25 07:01:57;;;;;;;4.97;2.28;;;;;;;7.90;92.72;100145.31;5008623;28;20485;-72
2023/03/25 07:04:22;;;;;;;7.47;2.50;;;;;;;7.95;92.39;100150.41;5009124;28;20037;-72
2023/03/25 07:06:47;;;;;;;14.80;2.58;;;;;;;8.09;91.80;100140.28;5009436;28;20458;-72
2023/03/25 07:09:13;;;;;;;8.48;2.25;;;;;;;8.21;90.50;100143.06;5018732;28;20033;-72
2023/03/25 07:11:38;;;;;;;13.23;2.70;;;;;;;8.19;91.39;100145.91;5024487;28;20029;-72
2023/03/25 07:14:04;;;;;;;6.00;1.80;;;;;;;8.20;90.49;100139.50;5018301;28;20449;-72
2023/03/25 07:16:29;;;;;;;9.77;2.70;;;;;;;8.22;90.91;100139.41;5025049;28;20040;-72
2023/03/25 07:18:55;;;;;;;9.70;2.40;;;;;;;8.25;91.26;100144.56;5042218;28;20069;-72
2023/03/25 07:21:21;;;;;;;10.90;2.35;;;;;;;8.26;89.94;100139.06;5009753;28;20389;-72
2023/03/25 07:23:47;;;;;;;11.90;2.63;;;;;;;8.30;91.07;100150.50;5009917;28;20034;-71
2023/03/25 07:26:12;;;;;;;16.00;3.00;;;;;;;8.27;91.69;100151.63;5009147;28;20057;-72
2023/03/25 07:28:39;;;;;;;11.95;2.42;;;;;;;8.24;92.73;100146.41;5009242;28;20513;-72
2023/03/25 07:31:10;;;;;;;12.63;2.00;;;;;;;8.24;92.42;100157.25;5040421;28;20129;-71
2023/03/25 07:33:36;;;;;;;12.15;3.67;;;;;;;8.25;92.50;100163.53;5009989;28;20049;-72
2023/03/25 07:36:02;;;;;;;5.57;1.85;;;;;;;8.19;93.28;100163.00;5013633;28;20034;-72
2023/03/25 07:38:27;;;;;;;21.40;3.00;;;;;;;8.15;92.18;100160.63;5018126;28;20112;-72
2023/03/25 07:40:54;;;;;;;6.60;2.67;;;;;;;8.10;92.65;100160.13;4992792;28;20269;-72
2023/03/25 07:43:19;;;;;;;10.05;2.33;;;;;;;8.05;92.58;100167.72;5008061;28;20044;-72
2023/03/25 07:45:53;;;;;;;11.50;2.42;;;;;;;8.00;93.69;100159.94;5013160;28;20163;-72
2023/03/25 07:48:18;;;;;;;7.78;2.00;;;;;;;7.99;93.59;100168.19;5021048;28;20029;-72
2023/03/25 07:50:44;;;;;;;10.50;2.47;;;;;;;7.99;94.37;100170.88;5027804;28;20490;-72
2023/03/25 07:53:10;;;;;;;10.48;2.40;;;;;;;7.99;94.92;100185.28;5022532;28;20034;-72
2023/03/25 07:55:36;;;;;;;13.60;4.05;;;;;;;8.03;94.07;100170.56;5009144;28;20065;-72
2023/03/25 07:58:01;;;;;;;10.60;2.03;;;;;;;8.05;94.15;100167.72;5041787;28;20374;-72
2023/03/25 08:00:28;;;;;;;16.08;3.05;;;;;;;8.06;94.07;100175.72;5041738;28;20112;-72
2023/03/25 08:02:54;;;;;;;14.60;2.90;;;;;;;8.14;94.04;100178.75;5009996;28;20448;-72
2023/03/25 08:05:20;;;;;;;14.05;2.58;;;;;;;8.23;94.46;100184.47;5009501;28;20048;-72
2023/03/25 08:07:50;;;;;;;12.90;2.67;;;;;;;8.37;93.27;100185.22;5009546;28;20037;-72
2023/03/25 08:10:16;;;;;;;10.32;2.25;;;;;;;8.48;93.39;100187.13;5007195;28;20111;-73
2023/03/25 08:12:43;;;;;;;14.07;2.60;;;;;;;8.53;92.68;100184.94;5009237;28;20029;-71
2023/03/25 08:15:10;;;;;;;10.80;2.88;;;;;;;8.60;93.38;100198.91;5009213;28;20119;-73
2023/03/25 08:17:36;;;;;;;12.43;2.10;;;;;;;8.64;93.06;100205.84;5008094;28;20041;-72
2023/03/25 08:20:04;;;;;;;9.27;2.45;;;;;;;8.62;92.29;100194.22;5009647;28;20038;-72
2023/03/25 08:22:29;;;;;;;12.32;2.15;;;;;;;8.66;92.57;100206.59;5024721;28;20088;-72
2023/03/25 08:24:55;;;;;;;17.75;2.80;;;;;;;8.71;94.02;100206.25;5020822;28;20436;-72
2023/03/25 08:27:20;;;;;;;11.52;2.05;;;;;;;8.81;93.18;100207.28;5028091;28;20068;-73
2023/03/25 08:29:53;;;;;;;15.27;2.80;;;;;;;8.83;94.37;100210.75;5017218;28;20084;-72
2023/03/25 08:32:18;;;;;;;;;;;;;;;8.89;93.50;100213.00;5009486;28;20033;-73
2023/03/25 08:34:44;;;;;;;12.95;2.40;;;;;;;8.89;94.88;100224.69;5027312;28;19919;-73
2023/03/25 08:37:10;;;;;;;10.73;2.92;;;;;;;8.88;95.27;100212.13;5028583;28;20424;-73
2023/03/25 08:39:38;;;;;;;16.15;3.60;;;;;;;8.97;95.73;100215.13;5008530;28;20057;-72
2023/03/25 08:42:07;;;;;;;11.20;2.75;;;;;;;9.13;95.82;100219.25;5024536;28;20126;-73
2023/03/25 08:44:34;;;;;;;8.77;2.47;;;;;;;9.22;94.76;100219.53;5015697;28;20389;-73
2023/03/25 08:47:00;;;;;;;12.50;2.70;;;;;;;9.23;94.59;100215.84;5019075;28;20037;-73
2023/03/25 08:49:25;;;;;;;13.23;2.70;;;;;;;9.16;93.69;100218.16;5008869;28;20060;-72
2023/03/25 08:51:51;;;;;;;11.07;2.85;;;;;;;9.09;93.65;100208.75;5008123;28;20034;-73
2023/03/25 08:54:16;;;;;;;13.95;3.35;;;;;;;9.12;95.59;100212.09;5010431;28;20493;-72
2023/03/25 08:56:41;;;;;;;10.80;2.72;;;;;;;9.24;95.63;100223.88;5019200;28;20068;-73
2023/03/25 08:59:07;;;;;;;10.15;2.35;;;;;;;9.37;95.06;100221.97;5040341;28;20358;-72
2023/03/25 09:01:32;;;;;;;11.07;2.28;;;;;;;9.55;95.34;100219.63;5006801;28;20108;-73
2023/03/25 09:03:57;;;;;;;11.80;2.50;;;;;;;9.59;93.92;100221.13;5019049;28;20116;-72
2023/03/25 09:06:23;;;;;;;16.45;3.88;;;;;;;9.69;94.66;100226.69;5025274;28;20190;-72
2023/03/25 09:08:48;;;;;;;10.80;2.85;;;;;;;9.78;92.45;100222.38;5006953;28;20080;-72
2023/03/25 09:11:15;;;;;;;18.38;3.20;;;;;;;9.83;93.10;100220.16;5006237;28;20553;-72
2023/03/25 09:13:40;;;;;;;8.30;2.40;;;;;;;9.96;91.44;100213.63;5007678;28;20044;-71
2023/03/25 09:16:07;;;;;;;12.38;2.50;;;;;;;10.05;90.69;100206.59;5007499;28;20529;-72
2023/03/25 09:18:34;;;;;;;12.43;3.88;;;;;;;10.18;91.39;100209.19;5020859;28;20490;-72
2023/03/25 09:20:59;;;;;;;19.90;3.22;;;;;;;10.35;92.09;100219.63;5021769;28;20065;-72
2023/03/25 09:23:25;;;;;;;17.85;4.38;;;;;;;10.47;89.05;100215.88;5021723;28;20390;-72
2023/03/25 09:25:51;;;;;;;20.30;3.83;;;;;;;10.58;88.71;100197.78;4995014;28;20368;-71
2023/03/25 09:28:16;;;;;;;18.08;3.83;;;;;;;10.77;89.83;100214.34;5018808;28;20500;-71
2023/03/25 09:30:41;;;;;;;15.70;3.13;;;;;;;10.86;86.10;100212.69;5013874;28;20432;-71
2023/03/25 09:33:07;;;;;;;14.10;2.90;;;;;;;10.81;86.14;100198.59;5016148;28;20136;-71
2023/03/25 09:35:32;;;;;;;13.50;3.40;;;;;;;10.85;85.45;100206.38;5027753;28;20536;-72
2023/03/25 09:37:58;;;;;;;12.98;2.90;;;;;;;10.82;85.44;100212.09;5034036;28;20034;-71
2023/03/25 09:40:23;;;;;;;15.85;4.03;;;;;;;10.84;84.42;100211.97;5026381;28;20068;-71
2023/03/25 09:43:13;;;;;;;19.23;2.60;;;;;;;10.94;85.93;100219.22;5026841;28;20037;-71
2023/03/25 09:45:42;;;;;;;13.35;2.90;;;;;;;11.17;85.36;100227.31;5007346;28;20049;-71
2023/03/25 09:48:30;;;;;;;17.13;3.20;;;;;;;11.22;85.07;100208.72;4998461;28;20056;-71
2023/03/25 09:51:02;;;;;;;16.52;3.38;;;;;;;11.31;85.48;100213.38;5012036;28;20558;-72
2023/03/25 09:53:36;;;;;;;;;;;;;;;11.38;84.42;100216.44;5018601;28;20045;-72
2023/03/25 09:56:06;;;;;;;13.80;2.80;;;;;;;11.33;83.68;100214.13;5052618;28;19920;-71
2023/03/25 09:58:40;;;;;;;16.85;2.88;;;;;;;11.41;84.35;100227.91;5038679;28;20456;-72
2023/03/25 10:01:13;;;;;;;14.55;2.97;;;;;;;11.58;82.19;100217.44;5010729;28;20484;-72
2023/03/25 10:03:42;;;;;;;;;;;;;;;11.74;81.46;100224.13;5006567;28;20084;-72
2023/03/25 10:06:19;;;;;;;10.15;3.15;;;;;;;11.71;81.35;100234.47;5028044;28;19952;-71
2023/03/25 10:09:22;;;;;;;12.48;2.90;;;;;;;11.83;82.66;100227.09;5013649;28;20137;-72
2023/03/25 10:12:11;;;;;;;15.50;4.20;;;;;;;11.80;81.08;100230.94;5012369;28;20033;-72
2023/03/25 10:14:57;;;;;;;23.10;3.30;;;;;;;11.55;80.44;100220.44;5016251;28;20043;-71
2023/03/25 10:17:32;;;;;;;13.07;3.30;;;;;;;11.39;82.04;100226.34;5013588;28;20383;-72
2023/03/25 10:20:04;;;;;;;13.93;3.30;;;;;;;11.33;83.50;100222.28;5007115;28;20042;-72
2023/03/25 10:22:39;;;;;;;14.05;3.80;;;;;;;11.24;81.84;100225.78;5022227;28;20041;-72
2023/03/25 10:25:12;;;;;;;15.13;3.35;;;;;;;11.12;82.47;100222.25;5034063;28;20134;-71
2023/03/25 10:27:41;;;;;;;14.05;3.63;;;;;;;10.93;83.18;100236.53;5038220;28;20060;-72
2023/03/25 10:30:35;;;;;;;15.30;4.82;;;;;;;10.77;83.62;100211.63;5012647;28;20124;-72
2023/03/25 10:33:27;;;;;;;13.55;4.57;;;;;;;10.64;85.11;100217.22;5009368;28;20046;-73
2023/03/25 10:35:55;;;;;;;18.55;3.70;;;;;;;10.53;84.23;100241.69;5015061;28;20049;-72
2023/03/25 10:38:23;;;;;;;14.75;3.75;;;;;;;10.53;85.12;100229.94;5011590;28;20045;-72
2023/03/25 10:41:09;;;;;;;18.63;4.88;;;;;;;10.55;82.66;100238.88;5058023;28;20033;-72
2023/03/25 10:43:38;;;;;;;15.15;3.72;;;;;;;10.47;82.87;100250.38;5011403;28;20418;-71
2023/03/25 10:46:25;;;;;;;16.58;3.63;;;;;;;10.40;85.07;100241.84;5007729;28;20041;-72
2023/03/25 10:48:51;;;;;;;15.98;3.53;;;;;;;10.37;83.48;100244.81;5014384;28;20081;-72
2023/03/25 10:51:25;;;;;;;23.30;4.05;;;;;;;10.48;82.78;100254.81;5015721;28;20502;-72
2023/03/25 10:53:51;;;;;;;16.70;3.65;;;;;;;10.54;82.24;100242.56;5031861;28;20053;-73
2023/03/25 10:56:34;;;;;;;15.82;3.00;;;;;;;10.58;81.44;100244.03;5017622;28;20021;-72
2023/03/25 10:59:05;;;;;;;10.52;2.80;;;;;;;10.60;80.26;100248.38;5007124;28;20117;-72
2023/03/25 11:01:36;;;;;;;16.10;3.17;;;;;;;10.68;79.51;100240.44;5007026;28;20041;-72
2023/03/25 11:04:06;;;;;;;10.02;3.08;;;;;;;10.93;80.87;100239.25;5014504;28;20052;-71
2023/03/25 11:06:44;;;;;;;10.20;3.40;;;;;;;11.16;79.01;100240.06;5039259;28;20159;-71
2023/03/25 11:09:15;;;;;;;19.75;2.78;;;;;;;11.30;76.07;100236.16;5023632;28;20045;-71
2023/03/25 11:11:42;;;;;;;10.57;2.00;;;;;;;11.41;75.31;100243.41;5014456;28;20409;-72
2023/03/25 11:14:09;;;;;;;10.40;2.08;;;;;;;11.54;76.95;100252.25;5024204;28;20489;-71
2023/03/25 11:16:41;;;;;;;15.85;2.50;;;;;;;11.69;74.88;100250.91;5017451;28;20046;-72
2023/03/25 11:19:16;;;;;;;8.05;1.98;;;;;;;11.80;72.67;100244.56;5020271;28;20137;-71
2023/03/25 11:21:46;;;;;;;11.05;2.05;;;;;;;12.08;73.27;100253.06;5026252;28;20044;-73
2023/03/25 11:24:16;;;;;;;9.85;2.20;;;;;;;12.16;70.89;100236.88;5020125;28;20038;-72
2023/03/25 11:26:47;;;;;;;15.07;2.78;;;;;;;12.07;68.19;100267.69;5013228;28;20090;-72
2023/03/25 11:29:17;;;;;;;8.23;1.40;;;;;;;11.88;70.53;100241.19;5023767;28;20041;-72
2023/03/25 11:31:43;;;;;;;11.30;1.88;;;;;;;11.77;72.26;100269.34;5035784;28;20121;-73
2023/03/25 11:34:11;;;;;;;11.35;1.98;;;;;;;11.74;71.52;100278.63;5008619;28;20100;-72
2023/03/25 11:36:54;;;;;;;8.25;2.30;;;;;;;11.73;71.53;100274.19;5020832;28;20646;-72
2023/03/25 11:39:22;;;;;;;9.88;2.00;;;;;;;11.76;69.56;100256.72;5013580;28;20033;-73
2023/03/25 11:41:49;;;;;;;9.18;1.92;;;;;;;11.75;70.53;100261.31;5031937;28;20021;-72
2023/03/25 11:44:29;;;;;;;6.45;1.77;;;;;;;11.78;71.28;100254.72;4983663;28;20095;-72